createdAt,value
2019-03-31T00:02:37.263Z,10.37
2019-03-31T00:05:17.115Z,10.47
2019-03-31T00:07:57.154Z,10.80
2019-03-31T00:10:37.144Z,10.43
2019-03-31T00:13:17.370Z,9.83
2019-03-31T00:15:57.533Z,10.73
2019-03-31T00:18:37.650Z,10.77
2019-03-31T00:21:17.759Z,10.47
2019-03-31T00:23:57.955Z,10.20
2019-03-31T00:26:38.182Z,10.33
2019-03-31T00:29:18.299Z,10.43
2019-03-31T00:31:59.081Z,10.80
2019-03-31T00:34:39.249Z,11.27
2019-03-31T00:37:19.184Z,10.57
2019-03-31T00:39:47.809Z,10.57
2019-03-31T00:42:35.935Z,10.70
2019-03-31T00:45:15.582Z,10.40
2019-03-31T00:47:55.650Z,10.33
2019-03-31T00:50:35.695Z,10.53
2019-03-31T00:53:16.318Z,10.50
2019-03-31T00:55:55.993Z,11.03
2019-03-31T00:58:36.201Z,10.87
2019-03-31T01:01:37.096Z,10.70
2019-03-31T01:04:21.972Z,9.97
2019-03-31T01:07:01.813Z,10.63
2019-03-31T01:09:42.173Z,11.00
2019-03-31T01:12:22.509Z,9.93
2019-03-31T01:15:03.989Z,10.57
2019-03-31T01:17:44.345Z,9.83
2019-03-31T01:20:12.530Z,11.03
2019-03-31T01:22:59.843Z,10.33
2019-03-31T01:25:47.170Z,10.77
2019-03-31T01:28:35.362Z,10.60
2019-03-31T01:31:15.228Z,10.93
2019-03-31T01:37:08.277Z,9.73
2019-03-31T01:39:48.293Z,9.87
2019-03-31T01:42:16.745Z,10.43
2019-03-31T01:45:04.178Z,10.17
2019-03-31T01:47:51.466Z,10.37
2019-03-31T01:50:31.477Z,9.80
2019-03-31T01:53:12.795Z,10.50
2019-03-31T01:55:52.466Z,10.60
2019-03-31T01:58:33.221Z,10.17
2019-03-31T02:01:14.781Z,9.23
2019-03-31T02:03:42.968Z,10.10
2019-03-31T02:06:30.269Z,9.70
2019-03-31T02:09:37.438Z,10.70
2019-03-31T02:12:17.795Z,9.60
2019-03-31T02:14:57.945Z,10.10
2019-03-31T02:17:37.951Z,10.10
2019-03-31T02:20:17.906Z,10.40
2019-03-31T02:22:58.101Z,10.20
2019-03-31T02:25:38.602Z,9.83
2019-03-31T02:28:18.443Z,10.63
2019-03-31T02:30:59.258Z,9.73
2019-03-31T02:33:41.602Z,10.23
2019-03-31T02:36:21.767Z,9.97
2019-03-31T02:39:01.887Z,9.77
2019-03-31T02:41:52.500Z,10.37
2019-03-31T02:44:34.274Z,10.40
2019-03-31T02:47:12.680Z,10.00
2019-03-31T02:50:00.042Z,10.60
2019-03-31T02:52:39.903Z,10.10
2019-03-31T02:55:20.196Z,9.50
2019-03-31T02:58:00.234Z,9.50
2019-03-31T03:00:40.810Z,10.20
2019-03-31T03:03:21.266Z,10.57
2019-03-31T03:06:01.447Z,10.17
2019-03-31T03:08:41.562Z,9.90
2019-03-31T03:11:21.562Z,10.47
2019-03-31T03:14:02.170Z,10.17
2019-03-31T03:16:42.658Z,11.00
2019-03-31T03:19:22.648Z,10.20
2019-03-31T03:22:02.887Z,10.27
2019-03-31T03:24:42.985Z,10.43
2019-03-31T03:27:23.069Z,10.20
2019-03-31T03:30:03.248Z,10.60
2019-03-31T03:33:12.272Z,10.97
2019-03-31T03:35:26.689Z,10.47
2019-03-31T03:38:06.994Z,11.13
2019-03-31T03:40:47.171Z,10.53
2019-03-31T03:46:26.282Z,10.53
2019-03-31T03:49:06.477Z,10.97
2019-03-31T03:51:46.216Z,11.17
2019-03-31T03:54:26.097Z,10.50
2019-03-31T03:57:06.296Z,10.97
2019-03-31T03:59:46.278Z,10.23
2019-03-31T04:02:26.654Z,10.73
2019-03-31T04:05:06.251Z,11.20
2019-03-31T04:07:46.357Z,10.63
2019-03-31T04:10:52.812Z,10.47
2019-03-31T04:13:32.671Z,11.10
2019-03-31T04:16:12.534Z,10.93
2019-03-31T04:18:52.625Z,10.90
2019-03-31T04:21:32.655Z,10.40
2019-03-31T04:24:12.802Z,11.10
2019-03-31T04:26:52.688Z,10.00
2019-03-31T04:29:32.959Z,10.27
2019-03-31T04:32:13.384Z,10.10
2019-03-31T04:34:53.257Z,10.57
2019-03-31T04:37:34.771Z,10.23
2019-03-31T04:40:14.962Z,10.40
2019-03-31T04:42:54.910Z,10.40
2019-03-31T04:45:36.146Z,10.23
2019-03-31T04:48:16.358Z,9.67
2019-03-31T04:50:56.585Z,10.73
2019-03-31T04:53:36.824Z,10.13
2019-03-31T04:59:29.199Z,10.33
2019-03-31T05:02:09.289Z,10.23
2019-03-31T05:04:49.138Z,10.60
2019-03-31T05:07:29.297Z,10.60
2019-03-31T05:10:09.659Z,10.07
2019-03-31T05:12:49.301Z,11.23
2019-03-31T05:15:29.453Z,10.20
2019-03-31T05:18:10.403Z,11.30
2019-03-31T05:20:50.807Z,11.17
2019-03-31T05:23:31.257Z,10.87
2019-03-31T05:26:11.051Z,10.90
2019-03-31T05:28:51.249Z,10.87
2019-03-31T05:31:33.769Z,10.50
2019-03-31T05:34:19.182Z,10.30
2019-03-31T05:36:56.421Z,10.50
2019-03-31T05:39:24.614Z,9.87
2019-03-31T05:42:11.953Z,10.20
2019-03-31T05:44:52.420Z,10.43
2019-03-31T05:47:32.899Z,10.27
2019-03-31T05:50:14.430Z,10.00
2019-03-31T05:52:54.648Z,10.03
2019-03-31T05:55:35.689Z,9.30
2019-03-31T05:58:15.817Z,10.03
2019-03-31T06:00:55.869Z,9.73
2019-03-31T06:03:35.803Z,10.17
2019-03-31T06:06:15.824Z,12.70
2019-03-31T06:08:56.149Z,10.10
2019-03-31T06:11:35.946Z,14.20
2019-03-31T06:14:15.907Z,10.47
2019-03-31T06:16:55.990Z,17.97
2019-03-31T06:19:35.961Z,10.40
2019-03-31T06:22:18.436Z,10.87
2019-03-31T06:24:58.168Z,9.50
2019-03-31T06:27:38.219Z,10.33
2019-03-31T06:30:18.117Z,9.63
2019-03-31T06:32:58.086Z,9.83
2019-03-31T06:35:38.093Z,9.97
2019-03-31T06:38:18.154Z,10.23
2019-03-31T06:40:58.456Z,10.40
2019-03-31T06:43:38.486Z,9.63
2019-03-31T06:46:18.434Z,9.93
2019-03-31T06:48:58.546Z,10.37
2019-03-31T06:51:38.705Z,10.70
2019-03-31T06:54:18.830Z,11.37
2019-03-31T06:56:58.903Z,9.80
2019-03-31T06:59:39.132Z,9.57
2019-03-31T07:02:19.090Z,9.50
2019-03-31T07:05:00.226Z,10.07
2019-03-31T07:10:23.129Z,10.83
2019-03-31T07:13:04.664Z,9.40
2019-03-31T07:15:44.465Z,8.73
2019-03-31T07:18:27.896Z,8.63
2019-03-31T07:21:08.042Z,8.53
2019-03-31T07:23:48.302Z,8.37
2019-03-31T07:26:18.585Z,8.47
2019-03-31T07:29:06.358Z,8.87
2019-03-31T07:31:53.682Z,8.53
2019-03-31T07:34:34.317Z,9.30
2019-03-31T07:37:14.686Z,8.60
2019-03-31T07:39:55.054Z,8.63
2019-03-31T07:42:35.748Z,8.93
2019-03-31T07:45:15.714Z,8.40
2019-03-31T07:47:55.674Z,9.60
2019-03-31T07:50:35.557Z,10.00
2019-03-31T07:53:15.763Z,10.13
2019-03-31T07:55:55.847Z,10.87
2019-03-31T07:58:36.008Z,10.57
2019-03-31T08:01:16.120Z,10.97
2019-03-31T08:03:56.216Z,10.80
2019-03-31T08:06:36.280Z,10.13
2019-03-31T08:09:17.806Z,9.93
2019-03-31T08:11:57.477Z,10.80
2019-03-31T08:14:37.604Z,9.97
2019-03-31T08:17:18.662Z,9.60
2019-03-31T08:19:59.378Z,9.27
2019-03-31T08:22:39.290Z,9.10
2019-03-31T08:25:19.312Z,9.63
2019-03-31T08:27:59.378Z,9.00
2019-03-31T08:30:39.521Z,7.70
2019-03-31T08:33:19.316Z,10.63
2019-03-31T08:35:48.031Z,11.00
2019-03-31T08:38:36.730Z,10.67
2019-03-31T08:41:16.786Z,9.77
2019-03-31T08:43:57.343Z,10.20
2019-03-31T08:46:37.810Z,8.87
2019-03-31T08:49:18.316Z,9.83
2019-03-31T08:51:58.319Z,9.30
2019-03-31T08:54:26.576Z,9.83
2019-03-31T08:56:54.749Z,9.58
2019-03-31T08:59:25.926Z,9.28
2019-03-31T09:01:54.140Z,10.50
2019-03-31T09:04:22.370Z,9.13
2019-03-31T09:06:50.598Z,10.10
2019-03-31T09:09:18.795Z,8.88
2019-03-31T09:11:47.318Z,9.70
2019-03-31T09:14:15.619Z,9.75
2019-03-31T09:16:43.793Z,9.28
2019-03-31T09:19:11.996Z,8.65
2019-03-31T09:21:41.312Z,8.53
2019-03-31T09:24:09.476Z,8.50
2019-03-31T09:26:37.682Z,8.55
2019-03-31T09:29:27.087Z,8.28
2019-03-31T09:32:14.505Z,7.03
2019-03-31T09:34:54.547Z,8.23
2019-03-31T09:37:22.833Z,8.13
2019-03-31T09:40:10.300Z,7.90
2019-03-31T09:42:49.911Z,7.95
2019-03-31T09:45:30.174Z,8.43
2019-03-31T09:48:10.251Z,8.88
2019-03-31T09:50:50.559Z,8.85
2019-03-31T09:53:30.637Z,9.60
2019-03-31T09:56:10.571Z,10.68
2019-03-31T09:58:51.017Z,10.10
2019-03-31T10:01:31.113Z,10.88
2019-03-31T10:04:12.564Z,11.33
2019-03-31T10:06:53.333Z,10.70
2019-03-31T10:09:33.683Z,10.80
2019-03-31T10:12:13.574Z,10.93
2019-03-31T10:14:54.390Z,10.80
2019-03-31T10:17:32.829Z,11.15
2019-03-31T10:20:13.331Z,11.57
2019-03-31T10:22:53.414Z,11.22
2019-03-31T10:25:34.626Z,12.20
2019-03-31T10:28:14.894Z,13.18
2019-03-31T10:30:54.750Z,13.70
2019-03-31T10:33:35.170Z,13.53
2019-03-31T10:36:14.747Z,13.68
2019-03-31T10:38:54.771Z,13.25
2019-03-31T10:41:35.029Z,13.90
2019-03-31T10:44:03.428Z,14.73
2019-03-31T10:46:31.990Z,14.95
2019-03-31T10:52:26.165Z,15.70
2019-03-31T10:55:07.578Z,16.60
2019-03-31T10:57:47.274Z,16.30
2019-03-31T11:00:27.181Z,14.98
2019-03-31T11:03:07.288Z,15.60
2019-03-31T11:05:47.983Z,15.75
2019-03-31T11:08:27.997Z,16.23
2019-03-31T11:11:09.325Z,15.93
2019-03-31T11:13:49.004Z,16.15
2019-03-31T11:16:29.030Z,16.02
2019-03-31T11:19:11.016Z,16.57
2019-03-31T11:24:37.689Z,15.28
2019-03-31T11:27:25.003Z,14.87
2019-03-31T11:30:12.497Z,15.23
2019-03-31T11:32:52.838Z,16.07
2019-03-31T11:35:21.205Z,15.78
2019-03-31T11:38:08.576Z,15.95
2019-03-31T11:40:55.930Z,15.93
2019-03-31T11:43:36.463Z,16.62
2019-03-31T11:46:16.790Z,15.90
2019-03-31T11:48:56.946Z,16.67
2019-03-31T11:51:37.459Z,16.95
2019-03-31T11:54:17.514Z,15.63
2019-03-31T11:56:57.861Z,15.13
2019-03-31T11:59:38.275Z,15.15
2019-03-31T12:02:26.973Z,13.80
2019-03-31T12:05:00.415Z,14.20
2019-03-31T12:07:47.156Z,13.95
2019-03-31T12:10:22.974Z,13.28
2019-03-31T12:12:51.145Z,12.88
2019-03-31T12:15:19.542Z,12.65
2019-03-31T12:18:06.835Z,13.08
2019-03-31T12:20:47.347Z,13.08
2019-03-31T12:23:27.294Z,12.53
2019-03-31T12:26:07.858Z,12.47
2019-03-31T12:28:48.163Z,12.65
2019-03-31T12:31:32.819Z,12.82
2019-03-31T12:34:13.518Z,12.68
2019-03-31T12:36:53.686Z,12.53
2019-03-31T12:39:33.533Z,13.18
2019-03-31T12:42:14.242Z,12.45
2019-03-31T12:51:06.065Z,13.70
2019-03-31T12:53:45.782Z,14.00
2019-03-31T12:56:26.112Z,12.93
2019-03-31T12:59:06.208Z,13.88
2019-03-31T13:01:47.433Z,13.93
2019-03-31T13:04:27.891Z,14.23
2019-03-31T13:07:07.859Z,14.90
2019-03-31T13:09:49.309Z,14.85
2019-03-31T13:12:29.660Z,14.80
2019-03-31T13:15:09.402Z,13.53
2019-03-31T13:17:49.889Z,15.10
2019-03-31T13:20:29.744Z,14.68
2019-03-31T13:26:08.727Z,15.65
2019-03-31T13:28:48.946Z,14.93
2019-03-31T13:31:29.258Z,15.00
2019-03-31T13:33:57.678Z,15.93
2019-03-31T13:36:25.811Z,15.70
2019-03-31T13:38:54.013Z,15.72
2019-03-31T13:41:22.213Z,16.40
2019-03-31T13:43:50.925Z,15.95
2019-03-31T13:46:19.184Z,16.45
2019-03-31T13:48:47.330Z,16.27
2019-03-31T13:51:15.597Z,16.50
2019-03-31T13:53:43.913Z,16.75
2019-03-31T13:56:12.419Z,16.05
2019-03-31T13:58:41.759Z,16.32
2019-03-31T14:01:10.117Z,15.88
2019-03-31T14:03:38.258Z,15.85
2019-03-31T14:06:06.401Z,16.40
2019-03-31T14:08:34.556Z,17.40
2019-03-31T14:11:02.774Z,17.07
2019-03-31T14:13:30.944Z,17.27
2019-03-31T14:15:59.938Z,17.23
2019-03-31T14:18:28.097Z,17.25
2019-03-31T14:21:15.437Z,18.42
2019-03-31T14:23:55.114Z,18.57
2019-03-31T14:26:23.277Z,17.55
2019-03-31T14:29:10.604Z,17.77
2019-03-31T14:31:57.873Z,17.87
2019-03-31T14:34:38.556Z,17.50
2019-03-31T14:37:19.241Z,17.80
2019-03-31T14:39:59.142Z,17.52
2019-03-31T14:42:39.353Z,17.55
2019-03-31T14:45:19.430Z,17.45
2019-03-31T14:47:59.771Z,18.25
2019-03-31T14:50:39.978Z,17.05
2019-03-31T14:53:20.094Z,16.52
2019-03-31T14:56:00.281Z,16.65
2019-03-31T14:58:40.512Z,17.10
2019-03-31T15:01:21.367Z,16.77
2019-03-31T15:04:02.516Z,16.97
2019-03-31T15:06:42.763Z,17.17
2019-03-31T15:09:22.862Z,17.17
2019-03-31T15:11:51.153Z,15.78
2019-03-31T15:14:38.530Z,15.13
2019-03-31T15:17:18.279Z,16.37
2019-03-31T15:19:58.732Z,15.53
2019-03-31T15:22:38.892Z,14.63
2019-03-31T15:25:19.052Z,15.32
2019-03-31T15:27:59.392Z,14.43
2019-03-31T15:30:39.521Z,15.60
2019-03-31T15:33:18.011Z,16.90
2019-03-31T15:36:05.345Z,15.65
2019-03-31T15:38:45.278Z,14.20
2019-03-31T15:41:25.468Z,14.75
2019-03-31T15:43:53.730Z,14.40
2019-03-31T15:46:24.478Z,14.60
2019-03-31T15:48:52.025Z,14.30
2019-03-31T15:51:39.642Z,13.55
2019-03-31T15:54:32.346Z,13.60
2019-03-31T15:57:12.520Z,13.20
2019-03-31T15:59:52.893Z,12.30
2019-03-31T16:02:32.862Z,11.80
2019-03-31T16:05:13.188Z,11.17
2019-03-31T16:07:53.333Z,11.50
2019-03-31T16:10:33.314Z,11.10
2019-03-31T16:13:13.670Z,10.13
2019-03-31T16:15:53.874Z,8.27
2019-03-31T16:18:34.362Z,7.77
2019-03-31T16:21:15.319Z,7.77
2019-03-31T16:23:53.501Z,7.47
2019-03-31T16:26:40.505Z,7.60
2019-03-31T16:29:27.610Z,8.17
2019-03-31T16:32:07.605Z,7.37
2019-03-31T16:34:47.997Z,7.37
2019-03-31T16:37:28.824Z,7.33
2019-03-31T16:39:56.765Z,7.27
2019-03-31T16:42:43.847Z,7.23
2019-03-31T16:45:24.154Z,6.60
2019-03-31T16:47:51.931Z,7.03
2019-03-31T16:50:38.962Z,6.63
2019-03-31T16:53:19.480Z,6.67
2019-03-31T16:55:59.358Z,7.17
2019-03-31T16:58:39.627Z,7.50
2019-03-31T17:01:19.554Z,8.00
2019-03-31T17:03:59.502Z,7.03
2019-03-31T17:06:39.678Z,6.70
2019-03-31T17:09:19.882Z,7.00
2019-03-31T17:11:59.734Z,6.47
2019-03-31T17:14:39.668Z,6.77
2019-03-31T17:17:19.865Z,6.10
2019-03-31T17:19:59.945Z,6.57
2019-03-31T17:22:39.910Z,7.23
2019-03-31T17:25:22.687Z,6.63
2019-03-31T17:28:02.582Z,6.33
2019-03-31T17:30:42.681Z,7.30
2019-03-31T17:33:23.318Z,7.30
2019-03-31T17:36:03.269Z,7.03
2019-03-31T17:38:43.563Z,7.80
2019-03-31T17:41:23.682Z,7.57
2019-03-31T17:44:03.840Z,7.37
2019-03-31T17:46:43.885Z,7.27
2019-03-31T17:49:23.907Z,7.27
2019-03-31T17:52:04.116Z,7.17
2019-03-31T17:54:44.294Z,6.80
2019-03-31T17:57:24.576Z,6.50
2019-03-31T18:00:04.921Z,7.63
2019-03-31T18:02:45.797Z,7.20
2019-03-31T18:05:26.081Z,7.27
2019-03-31T18:08:06.379Z,8.80
2019-03-31T18:10:46.773Z,7.73
2019-03-31T18:13:26.999Z,8.40
2019-03-31T18:16:07.081Z,8.93
2019-03-31T18:18:47.364Z,9.23
2019-03-31T18:21:27.557Z,8.10
2019-03-31T18:24:07.506Z,8.90
2019-03-31T18:26:47.825Z,10.80
2019-03-31T18:29:28.209Z,9.80
2019-03-31T18:32:10.753Z,9.87
2019-03-31T18:34:50.697Z,10.37
2019-03-31T18:37:30.715Z,10.27
2019-03-31T18:40:10.994Z,10.80
2019-03-31T18:42:51.241Z,11.03
2019-03-31T18:45:31.285Z,11.13
2019-03-31T18:48:11.538Z,11.20
2019-03-31T18:50:51.718Z,11.33
2019-03-31T18:56:50.330Z,10.90
2019-03-31T18:59:57.005Z,10.50
2019-03-31T19:02:56.556Z,9.77
2019-03-31T19:05:55.801Z,10.57
2019-03-31T19:08:51.215Z,10.60
2019-03-31T19:11:51.243Z,11.93
2019-03-31T19:14:51.104Z,11.13
2019-03-31T19:17:51.224Z,12.00
2019-03-31T19:20:52.118Z,11.13
2019-03-31T19:23:58.553Z,11.27
2019-03-31T19:26:57.089Z,10.87
2019-03-31T19:30:03.627Z,11.47
2019-03-31T19:32:59.645Z,10.97
2019-03-31T19:35:59.897Z,10.23
2019-03-31T19:38:59.139Z,10.20
2019-03-31T19:41:49.456Z,10.03
2019-03-31T19:44:55.515Z,9.90
2019-03-31T19:47:55.988Z,10.10
2019-03-31T19:50:44.194Z,9.47
2019-03-31T19:53:50.663Z,9.60
2019-03-31T19:56:39.737Z,9.67
2019-03-31T19:59:40.428Z,9.67
2019-03-31T20:02:30.491Z,9.40
2019-03-31T20:05:30.012Z,8.97
2019-03-31T20:08:29.329Z,9.87
2019-03-31T20:11:25.100Z,9.43
2019-03-31T20:14:17.115Z,8.90
2019-03-31T20:17:16.352Z,8.77
2019-03-31T20:20:15.556Z,9.37
2019-03-31T20:23:21.068Z,9.43
2019-03-31T20:26:20.736Z,10.00
2019-03-31T20:29:21.397Z,10.37
2019-03-31T20:32:08.110Z,9.60
2019-03-31T20:35:07.187Z,10.90
2019-03-31T20:37:53.553Z,10.23
2019-03-31T20:40:52.613Z,10.40
2019-03-31T20:43:46.507Z,10.20
2019-03-31T20:46:27.149Z,9.60
2019-03-31T20:48:54.949Z,10.33
2019-03-31T20:51:41.974Z,10.87
2019-03-31T20:54:29.106Z,10.10
2019-03-31T20:57:09.182Z,10.73
2019-03-31T20:59:49.398Z,10.53
2019-03-31T21:02:29.283Z,10.27
2019-03-31T21:05:09.671Z,9.17
2019-03-31T21:07:49.666Z,9.33
2019-03-31T21:10:29.989Z,9.33
2019-03-31T21:13:10.239Z,8.73
2019-03-31T21:15:50.432Z,9.50
2019-03-31T21:18:30.574Z,9.00
2019-03-31T21:21:10.702Z,9.13
2019-03-31T21:23:50.933Z,9.43
2019-03-31T21:26:31.295Z,8.83
2019-03-31T21:29:11.482Z,9.50
2019-03-31T21:31:51.805Z,9.67
2019-03-31T21:34:31.856Z,9.53
2019-03-31T21:37:12.000Z,8.93
2019-03-31T21:39:52.435Z,9.17
2019-03-31T21:42:32.483Z,8.73
2019-03-31T21:45:00.318Z,8.53
2019-03-31T21:47:47.376Z,9.07
2019-03-31T21:50:34.460Z,8.73
2019-03-31T21:53:14.193Z,9.37
2019-03-31T21:55:54.518Z,8.70
2019-03-31T21:58:34.503Z,8.40
2019-03-31T22:01:14.669Z,7.63
2019-03-31T22:03:54.460Z,8.50
2019-03-31T22:06:34.493Z,7.67
2019-03-31T22:09:14.723Z,8.57
2019-03-31T22:11:54.693Z,7.93
2019-03-31T22:14:35.117Z,7.93
2019-03-31T22:17:14.823Z,8.23
2019-03-31T22:19:54.981Z,7.97
2019-03-31T22:22:35.014Z,7.87
2019-03-31T22:25:14.945Z,8.10
2019-03-31T22:27:55.210Z,8.53
2019-03-31T22:30:35.132Z,8.23
2019-03-31T22:33:15.443Z,8.10
2019-03-31T22:36:14.932Z,8.53
2019-03-31T22:38:54.701Z,8.70
2019-03-31T22:41:37.057Z,8.47
2019-03-31T22:44:17.096Z,9.10
2019-03-31T22:46:57.029Z,8.90
2019-03-31T22:49:37.455Z,8.63
2019-03-31T22:52:17.263Z,8.40
2019-03-31T22:54:57.432Z,7.50
2019-03-31T22:57:25.318Z,7.93
2019-03-31T23:06:06.645Z,8.30
2019-03-31T23:08:47.003Z,7.57
2019-03-31T23:11:27.053Z,7.57
2019-03-31T23:14:07.758Z,6.80
2019-03-31T23:16:47.847Z,6.83
2019-03-31T23:19:27.878Z,7.23
2019-03-31T23:22:07.897Z,7.00
2019-03-31T23:24:48.077Z,7.17
2019-03-31T23:27:28.145Z,7.73
2019-03-31T23:30:09.119Z,7.20
2019-03-31T23:32:49.518Z,7.17
2019-03-31T23:35:29.722Z,6.90
2019-03-31T23:37:57.371Z,6.97
2019-03-31T23:40:44.384Z,7.47
2019-03-31T23:43:34.614Z,7.97
2019-03-31T23:46:15.098Z,7.57
2019-03-31T23:48:55.193Z,7.07
2019-03-31T23:51:35.698Z,6.90
2019-03-31T23:54:15.576Z,6.80
2019-03-31T23:56:55.606Z,6.70
2019-03-31T23:59:35.834Z,6.97
